createdAt,value
2023-12-29T00:01:09.018Z,1.98
2023-12-29T00:03:37.435Z,2.03
2023-12-29T00:06:04.995Z,2.10
2023-12-29T00:08:32.755Z,2.00
2023-12-29T00:11:00.610Z,2.47
2023-12-29T00:13:27.688Z,2.50
2023-12-29T00:15:55.896Z,2.40
2023-12-29T00:18:26.040Z,2.28
2023-12-29T00:21:06.014Z,2.10
2023-12-29T00:23:35.017Z,1.70
2023-12-29T00:26:02.277Z,2.00
2023-12-29T00:28:29.380Z,1.85
2023-12-29T00:31:01.475Z,1.88
2023-12-29T00:33:31.383Z,1.75
2023-12-29T00:35:58.990Z,1.80
2023-12-29T00:38:31.947Z,1.98
2023-12-29T00:40:58.982Z,1.40
2023-12-29T00:43:25.927Z,1.75
2023-12-29T00:45:53.003Z,1.67
2023-12-29T00:48:20.153Z,1.77
2023-12-29T00:50:47.412Z,1.88
2023-12-29T00:53:14.419Z,1.63
2023-12-29T00:55:41.668Z,1.60
2023-12-29T00:58:09.438Z,1.85
2023-12-29T01:00:36.743Z,1.95
2023-12-29T01:03:03.932Z,1.92
2023-12-29T01:05:31.128Z,2.00
2023-12-29T01:07:58.700Z,1.55
2023-12-29T01:10:26.017Z,1.80
2023-12-29T01:12:53.042Z,1.90
2023-12-29T01:15:20.118Z,1.90
2023-12-29T01:17:47.349Z,1.83
2023-12-29T01:20:14.634Z,2.30
2023-12-29T01:22:42.143Z,1.90
2023-12-29T01:25:09.419Z,2.00
2023-12-29T01:27:36.736Z,2.10
2023-12-29T01:30:04.104Z,1.73
2023-12-29T01:32:31.216Z,1.80
2023-12-29T01:34:58.365Z,2.00
2023-12-29T01:37:25.545Z,1.90
2023-12-29T01:39:52.596Z,1.73
2023-12-29T01:42:19.840Z,1.90
2023-12-29T01:44:48.348Z,1.95
2023-12-29T01:47:17.616Z,1.75
2023-12-29T01:49:49.810Z,2.13
2023-12-29T01:52:21.052Z,2.03
2023-12-29T01:54:50.818Z,2.10
2023-12-29T01:57:18.020Z,2.20
2023-12-29T01:59:46.641Z,2.50
2023-12-29T02:02:14.072Z,2.10
2023-12-29T02:04:42.586Z,2.25
2023-12-29T02:07:10.343Z,2.13
2023-12-29T02:09:37.936Z,1.80
2023-12-29T02:12:05.500Z,1.80
2023-12-29T02:14:32.759Z,1.90
2023-12-29T02:17:19.353Z,1.95
2023-12-29T02:19:50.471Z,1.90
2023-12-29T02:22:17.563Z,2.03
2023-12-29T02:24:51.193Z,2.00
2023-12-29T02:27:37.779Z,1.75
2023-12-29T02:30:20.026Z,1.75
2023-12-29T02:32:48.959Z,2.13
2023-12-29T02:35:21.364Z,2.00
2023-12-29T02:37:49.478Z,2.10
2023-12-29T02:40:17.579Z,1.90
2023-12-29T02:42:49.030Z,2.00
2023-12-29T02:45:16.940Z,2.35
2023-12-29T02:47:45.126Z,2.63
2023-12-29T02:50:12.789Z,2.00
2023-12-29T02:52:39.857Z,2.00
2023-12-29T02:55:07.160Z,1.90
2023-12-29T02:57:34.205Z,2.40
2023-12-29T03:00:05.324Z,2.40
2023-12-29T03:02:35.618Z,2.60
2023-12-29T03:05:04.138Z,2.00
2023-12-29T03:07:31.171Z,2.20
2023-12-29T03:09:58.453Z,1.92
2023-12-29T03:12:25.571Z,1.90
2023-12-29T03:14:52.611Z,2.30
2023-12-29T03:17:19.686Z,1.90
2023-12-29T03:19:47.022Z,2.10
2023-12-29T03:22:17.197Z,1.92
2023-12-29T03:24:44.250Z,2.15
2023-12-29T03:27:11.604Z,1.90
2023-12-29T03:29:38.648Z,1.88
2023-12-29T03:32:06.211Z,1.88
2023-12-29T03:34:33.417Z,2.03
2023-12-29T03:37:00.642Z,2.30
2023-12-29T03:39:27.758Z,1.90
2023-12-29T03:41:54.959Z,2.35
2023-12-29T03:44:22.103Z,2.17
2023-12-29T03:46:50.619Z,2.50
2023-12-29T03:49:17.796Z,2.60
2023-12-29T03:51:45.085Z,2.35
2023-12-29T03:54:12.862Z,1.95
2023-12-29T03:56:40.030Z,2.33
2023-12-29T03:59:07.096Z,2.03
2023-12-29T04:01:35.894Z,2.10
2023-12-29T04:04:03.083Z,2.30
2023-12-29T04:06:30.820Z,1.88
2023-12-29T04:08:57.811Z,2.08
2023-12-29T04:11:24.890Z,1.85
2023-12-29T04:13:52.122Z,1.90
2023-12-29T04:16:21.159Z,2.10
2023-12-29T04:18:48.547Z,2.22
2023-12-29T04:21:16.351Z,1.95
2023-12-29T04:23:43.588Z,1.90
2023-12-29T04:26:11.089Z,1.95
2023-12-29T04:28:38.338Z,1.90
2023-12-29T04:31:05.759Z,2.20
2023-12-29T04:33:32.960Z,2.00
2023-12-29T04:36:00.568Z,2.27
2023-12-29T04:38:27.603Z,1.90
2023-12-29T04:40:54.687Z,1.80
2023-12-29T04:43:21.804Z,1.90
2023-12-29T04:45:49.173Z,2.20
2023-12-29T04:48:16.309Z,1.70
2023-12-29T04:50:43.493Z,2.20
2023-12-29T04:53:10.581Z,2.35
2023-12-29T04:55:37.994Z,2.13
2023-12-29T04:58:05.450Z,2.70
2023-12-29T05:00:32.813Z,2.00
2023-12-29T05:03:00.217Z,1.95
2023-12-29T05:05:27.564Z,2.20
2023-12-29T05:07:54.782Z,2.05
2023-12-29T05:10:22.295Z,2.40
2023-12-29T05:12:49.519Z,2.27
2023-12-29T05:15:16.737Z,2.20
2023-12-29T05:17:43.992Z,2.08
2023-12-29T05:20:12.049Z,2.07
2023-12-29T05:22:39.132Z,1.90
2023-12-29T05:25:10.069Z,2.37
2023-12-29T05:27:37.617Z,2.00
2023-12-29T05:30:36.948Z,1.90
2023-12-29T05:33:04.627Z,2.30
2023-12-29T05:35:31.954Z,2.38
2023-12-29T05:37:59.359Z,2.40
2023-12-29T05:40:29.745Z,2.22
2023-12-29T05:42:56.959Z,2.37
2023-12-29T05:45:24.029Z,2.50
2023-12-29T05:47:54.171Z,2.60
2023-12-29T05:50:21.391Z,2.05
2023-12-29T05:52:53.009Z,2.35
2023-12-29T05:55:20.816Z,2.45
2023-12-29T05:57:47.887Z,2.55
2023-12-29T06:00:15.748Z,2.47
2023-12-29T06:02:43.565Z,2.43
2023-12-29T06:05:22.964Z,1.92
2023-12-29T06:07:50.186Z,2.70
2023-12-29T06:10:19.896Z,2.30
2023-12-29T06:12:47.164Z,2.20
2023-12-29T06:15:17.326Z,2.35
2023-12-29T06:17:44.941Z,2.30
2023-12-29T06:20:12.953Z,2.80
2023-12-29T06:22:42.906Z,2.70
2023-12-29T06:25:13.841Z,2.20
2023-12-29T06:27:41.910Z,2.13
2023-12-29T06:30:11.052Z,3.07
2023-12-29T06:32:38.488Z,2.47
2023-12-29T06:35:06.309Z,2.30
2023-12-29T06:37:34.055Z,2.20
2023-12-29T06:40:01.378Z,2.20
2023-12-29T06:42:28.978Z,2.30
2023-12-29T06:44:56.185Z,2.10
2023-12-29T06:47:23.243Z,2.27
2023-12-29T06:49:51.274Z,2.17
2023-12-29T06:52:18.564Z,2.15
2023-12-29T06:54:45.886Z,1.90
2023-12-29T06:57:15.817Z,2.10
2023-12-29T06:59:43.187Z,2.33
2023-12-29T07:02:12.907Z,1.90
2023-12-29T07:04:44.027Z,2.10
2023-12-29T07:07:11.497Z,2.58
2023-12-29T07:09:42.002Z,1.92
2023-12-29T07:12:09.634Z,1.83
2023-12-29T07:14:37.041Z,2.00
2023-12-29T07:17:04.965Z,2.10
2023-12-29T07:19:38.597Z,2.03
2023-12-29T07:22:07.379Z,2.10
2023-12-29T07:24:52.428Z,1.70
2023-12-29T07:27:19.437Z,1.90
2023-12-29T07:29:46.699Z,1.90
2023-12-29T07:32:14.067Z,1.90
2023-12-29T07:34:41.312Z,2.03
2023-12-29T07:37:08.772Z,1.80
2023-12-29T07:39:38.491Z,2.30
2023-12-29T07:42:06.912Z,1.77
2023-12-29T07:44:34.166Z,1.93
2023-12-29T07:47:01.437Z,2.23
2023-12-29T07:49:29.090Z,1.83
2023-12-29T07:52:00.835Z,2.17
2023-12-29T07:54:27.955Z,2.00
2023-12-29T07:56:55.166Z,1.73
2023-12-29T07:59:22.549Z,2.13
2023-12-29T08:01:49.995Z,1.90
2023-12-29T08:04:17.472Z,1.90
2023-12-29T08:06:44.869Z,1.50
2023-12-29T08:09:12.210Z,1.80
2023-12-29T08:11:39.448Z,1.98
2023-12-29T08:14:07.939Z,2.10
2023-12-29T08:16:40.477Z,2.10
2023-12-29T08:19:08.305Z,2.25
2023-12-29T08:21:35.680Z,2.20
2023-12-29T08:24:03.329Z,2.20
2023-12-29T08:26:30.646Z,1.90
2023-12-29T08:28:57.810Z,2.20
2023-12-29T08:31:25.358Z,2.33
2023-12-29T08:33:52.654Z,2.07
2023-12-29T08:36:21.109Z,1.87
2023-12-29T08:38:48.227Z,1.58
2023-12-29T08:41:15.806Z,1.53
2023-12-29T08:43:43.036Z,2.10
2023-12-29T08:46:10.056Z,1.80
2023-12-29T08:48:37.873Z,2.00
2023-12-29T08:51:05.024Z,1.60
2023-12-29T08:53:35.412Z,1.83
2023-12-29T08:56:03.185Z,1.73
2023-12-29T08:58:31.170Z,1.95
2023-12-29T09:00:58.296Z,2.00
2023-12-29T09:03:25.469Z,1.80
2023-12-29T09:05:52.493Z,1.63
2023-12-29T09:08:19.496Z,2.13
2023-12-29T09:10:46.632Z,2.20
2023-12-29T09:13:13.823Z,1.90
2023-12-29T09:15:41.048Z,1.53
2023-12-29T09:18:08.219Z,1.70
2023-12-29T09:20:35.477Z,1.87
2023-12-29T09:23:04.705Z,2.10
2023-12-29T09:25:31.942Z,2.03
2023-12-29T09:27:59.259Z,1.87
2023-12-29T09:30:26.512Z,2.03
2023-12-29T09:32:53.684Z,1.60
2023-12-29T09:35:21.915Z,1.87
2023-12-29T09:37:52.709Z,1.63
2023-12-29T09:40:20.018Z,1.90
2023-12-29T09:42:48.478Z,2.00
2023-12-29T09:45:17.783Z,1.80
2023-12-29T09:47:45.091Z,1.90
2023-12-29T09:50:13.809Z,2.10
2023-12-29T09:52:41.766Z,1.60
2023-12-29T09:55:12.781Z,1.70
2023-12-29T09:57:40.300Z,2.00
2023-12-29T10:00:12.748Z,1.53
2023-12-29T10:02:40.244Z,1.50
2023-12-29T10:05:08.710Z,1.60
2023-12-29T10:07:39.777Z,1.53
2023-12-29T10:10:08.058Z,1.40
2023-12-29T10:12:38.376Z,1.50
2023-12-29T10:15:07.303Z,1.43
2023-12-29T10:18:07.126Z,1.90
2023-12-29T10:20:58.295Z,1.40
2023-12-29T10:23:36.650Z,1.63
2023-12-29T10:26:05.174Z,1.47
2023-12-29T10:28:33.483Z,1.40
2023-12-29T10:31:01.121Z,1.30
2023-12-29T10:33:30.710Z,1.60
2023-12-29T10:36:06.404Z,1.13
2023-12-29T10:38:33.857Z,1.30
2023-12-29T10:41:20.977Z,1.20
2023-12-29T10:43:48.838Z,1.27
2023-12-29T10:46:16.351Z,1.33
2023-12-29T10:48:43.991Z,1.37
2023-12-29T10:51:11.794Z,1.10
2023-12-29T10:53:41.572Z,1.20
2023-12-29T10:56:22.522Z,1.30
2023-12-29T10:59:00.753Z,1.20
2023-12-29T11:01:28.266Z,1.27
2023-12-29T11:04:10.673Z,1.17
2023-12-29T11:06:45.902Z,1.10
2023-12-29T11:09:13.186Z,1.27
2023-12-29T11:11:40.907Z,1.50
2023-12-29T11:14:13.238Z,1.20
2023-12-29T11:16:42.660Z,1.57
2023-12-29T11:19:14.658Z,1.23
2023-12-29T11:21:43.781Z,1.10
2023-12-29T11:24:13.220Z,1.47
2023-12-29T11:26:41.292Z,1.37
2023-12-29T11:29:09.737Z,1.57
2023-12-29T11:31:36.942Z,1.70
2023-12-29T11:34:13.560Z,1.53
2023-12-29T11:36:46.500Z,1.37
2023-12-29T11:39:21.649Z,1.50
2023-12-29T11:42:13.758Z,1.13
2023-12-29T11:44:40.815Z,1.30
2023-12-29T11:47:39.751Z,1.20
2023-12-29T11:50:07.182Z,1.40
2023-12-29T11:52:40.006Z,1.30
2023-12-29T11:55:19.182Z,1.70
2023-12-29T11:57:46.607Z,1.80
2023-12-29T12:00:13.900Z,1.37
2023-12-29T12:02:42.616Z,1.43
2023-12-29T12:05:12.732Z,1.60
2023-12-29T12:07:42.510Z,1.40
2023-12-29T12:10:24.877Z,1.53
2023-12-29T12:12:53.425Z,1.57
2023-12-29T12:15:30.374Z,2.00
2023-12-29T12:17:59.217Z,1.40
2023-12-29T12:20:26.948Z,1.50
2023-12-29T12:23:02.040Z,1.30
2023-12-29T12:25:31.232Z,2.00
2023-12-29T12:27:58.677Z,1.50
2023-12-29T12:30:25.640Z,1.33
2023-12-29T12:33:04.454Z,1.40
2023-12-29T12:35:32.162Z,1.37
2023-12-29T12:38:15.831Z,1.40
2023-12-29T12:40:42.797Z,1.30
2023-12-29T12:43:14.665Z,1.30
2023-12-29T12:45:48.174Z,1.67
2023-12-29T12:48:41.287Z,1.50
2023-12-29T12:51:08.414Z,1.47
2023-12-29T12:53:35.496Z,1.10
2023-12-29T12:56:04.347Z,1.10
2023-12-29T12:58:31.923Z,1.10
2023-12-29T13:01:00.390Z,1.10
2023-12-29T13:03:28.531Z,1.40
2023-12-29T13:05:57.931Z,1.30
2023-12-29T13:08:34.269Z,1.40
2023-12-29T13:11:05.476Z,1.30
2023-12-29T13:13:45.312Z,1.30
2023-12-29T13:16:14.353Z,1.50
2023-12-29T13:18:41.663Z,1.57
2023-12-29T13:21:10.359Z,1.10
2023-12-29T13:23:37.907Z,1.27
2023-12-29T13:26:09.073Z,1.23
2023-12-29T13:28:39.734Z,1.60
2023-12-29T13:31:12.126Z,1.10
2023-12-29T13:33:44.414Z,1.30
2023-12-29T13:36:25.216Z,1.10
2023-12-29T13:38:58.992Z,1.40
2023-12-29T13:41:29.356Z,1.20
2023-12-29T13:43:57.134Z,1.40
2023-12-29T13:46:24.552Z,1.50
2023-12-29T13:48:52.980Z,1.33
2023-12-29T13:51:25.339Z,1.30
2023-12-29T13:54:00.222Z,1.33
2023-12-29T13:56:27.619Z,1.30
2023-12-29T13:58:54.841Z,1.47
2023-12-29T14:01:22.077Z,1.27
2023-12-29T14:04:21.866Z,1.40
2023-12-29T14:07:01.538Z,1.30
2023-12-29T14:09:30.368Z,0.90
2023-12-29T14:11:57.926Z,1.83
2023-12-29T14:14:28.845Z,1.10
2023-12-29T14:16:56.215Z,1.47
2023-12-29T14:19:23.823Z,1.13
2023-12-29T14:21:57.186Z,1.30
2023-12-29T14:24:24.389Z,1.27
2023-12-29T14:26:55.396Z,1.20
2023-12-29T14:29:22.658Z,1.20
2023-12-29T14:31:52.818Z,1.20
2023-12-29T14:34:20.847Z,1.40
2023-12-29T14:36:48.274Z,1.30
2023-12-29T14:39:17.053Z,1.17
2023-12-29T14:41:46.877Z,1.40
2023-12-29T14:44:14.122Z,1.43
2023-12-29T14:46:41.588Z,1.30
2023-12-29T14:49:09.383Z,1.33
2023-12-29T14:51:36.887Z,1.40
2023-12-29T14:54:07.055Z,1.17
2023-12-29T14:56:34.174Z,1.50
2023-12-29T14:59:01.269Z,1.30
2023-12-29T15:01:29.042Z,1.30
2023-12-29T15:03:56.506Z,1.50
2023-12-29T15:06:24.365Z,1.40
2023-12-29T15:08:51.609Z,1.40
2023-12-29T15:11:19.622Z,1.53
2023-12-29T15:13:47.493Z,1.60
2023-12-29T15:16:15.053Z,1.60
2023-12-29T15:18:42.330Z,1.50
2023-12-29T15:21:09.562Z,1.03
2023-12-29T15:23:37.927Z,1.20
2023-12-29T15:26:05.146Z,1.50
2023-12-29T15:28:32.715Z,1.57
2023-12-29T15:31:00.281Z,1.53
2023-12-29T15:33:27.785Z,1.10
2023-12-29T15:35:55.239Z,1.30
2023-12-29T15:38:22.822Z,1.30
2023-12-29T15:40:50.159Z,1.10
2023-12-29T15:43:17.423Z,1.20
2023-12-29T15:45:47.566Z,1.40
2023-12-29T15:48:14.850Z,1.30
2023-12-29T15:50:42.283Z,1.27
2023-12-29T15:53:09.635Z,1.07
2023-12-29T15:55:36.850Z,1.60
2023-12-29T15:58:05.867Z,1.40
2023-12-29T16:00:34.475Z,1.20
2023-12-29T16:03:03.008Z,1.30
2023-12-29T16:05:30.516Z,1.40
2023-12-29T16:07:57.713Z,1.10
2023-12-29T16:10:27.864Z,1.27
2023-12-29T16:12:55.129Z,1.50
2023-12-29T16:15:22.435Z,1.43
2023-12-29T16:17:49.623Z,1.20
2023-12-29T16:20:17.505Z,1.23
2023-12-29T16:22:44.806Z,1.40
2023-12-29T16:25:12.081Z,1.50
2023-12-29T16:27:39.177Z,1.50
2023-12-29T16:30:08.277Z,1.50
2023-12-29T16:32:35.647Z,1.33
2023-12-29T16:35:06.717Z,1.73
2023-12-29T16:37:38.759Z,1.40
2023-12-29T16:40:07.406Z,1.80
2023-12-29T16:42:34.912Z,1.60
2023-12-29T16:45:02.179Z,1.40
2023-12-29T16:47:29.371Z,1.70
2023-12-29T16:49:56.595Z,1.43
2023-12-29T16:52:23.825Z,1.57
2023-12-29T16:54:51.531Z,1.50
2023-12-29T16:57:18.856Z,1.57
2023-12-29T16:59:46.013Z,1.30
2023-12-29T17:02:13.344Z,1.73
2023-12-29T17:04:46.524Z,1.90
2023-12-29T17:07:13.989Z,1.50
2023-12-29T17:09:41.548Z,1.88
2023-12-29T17:12:09.543Z,1.98
2023-12-29T17:14:42.419Z,2.20
2023-12-29T17:17:11.777Z,1.50
2023-12-29T17:19:39.069Z,1.98
2023-12-29T17:22:07.257Z,2.43
2023-12-29T17:24:40.282Z,2.10
2023-12-29T17:27:09.342Z,1.90
2023-12-29T17:29:36.551Z,2.50
2023-12-29T17:32:04.359Z,2.22
2023-12-29T17:34:33.715Z,2.23
2023-12-29T17:37:01.570Z,2.17
2023-12-29T17:39:28.620Z,2.30
2023-12-29T17:41:55.758Z,2.08
2023-12-29T17:44:22.780Z,2.67
2023-12-29T17:46:51.066Z,2.28
2023-12-29T17:49:19.636Z,2.30
2023-12-29T17:51:47.699Z,2.75
2023-12-29T17:54:14.881Z,2.50
2023-12-29T17:56:42.020Z,2.55
2023-12-29T17:59:09.816Z,2.83
2023-12-29T18:01:37.081Z,2.40
2023-12-29T18:04:04.646Z,2.70
2023-12-29T18:06:32.564Z,2.50
2023-12-29T18:09:01.255Z,2.90
2023-12-29T18:11:37.523Z,2.70
2023-12-29T18:14:05.078Z,3.28
2023-12-29T18:16:35.147Z,2.85
2023-12-29T18:19:02.694Z,3.13
2023-12-29T18:21:30.543Z,3.10
2023-12-29T18:23:57.939Z,2.50
2023-12-29T18:26:25.355Z,2.30
2023-12-29T18:28:52.690Z,2.40
2023-12-29T18:31:20.777Z,2.30
2023-12-29T18:33:48.660Z,2.30
2023-12-29T18:36:17.230Z,2.53
2023-12-29T18:38:44.393Z,2.05
2023-12-29T18:41:11.651Z,2.22
2023-12-29T18:43:39.323Z,2.20
2023-12-29T18:46:07.420Z,2.38
2023-12-29T18:48:35.105Z,2.50
2023-12-29T18:51:03.371Z,2.55
2023-12-29T18:53:31.565Z,2.55
2023-12-29T18:55:58.620Z,2.20
2023-12-29T18:58:25.891Z,2.97
2023-12-29T19:00:56.977Z,2.50
2023-12-29T19:03:24.254Z,2.30
2023-12-29T19:05:54.665Z,2.50
2023-12-29T19:08:21.815Z,2.33
2023-12-29T19:10:50.327Z,2.72
2023-12-29T19:13:20.171Z,2.65
2023-12-29T19:15:48.949Z,2.95
2023-12-29T19:18:16.020Z,2.47
2023-12-29T19:20:43.183Z,2.88
2023-12-29T19:23:10.333Z,3.00
2023-12-29T19:25:37.475Z,2.70
2023-12-29T19:28:05.487Z,3.83
2023-12-29T19:30:35.002Z,3.75
2023-12-29T19:33:02.525Z,2.70
2023-12-29T19:35:30.294Z,2.50
2023-12-29T19:37:57.586Z,2.42
2023-12-29T19:40:24.742Z,2.70
2023-12-29T19:43:01.197Z,2.30
2023-12-29T19:45:28.565Z,2.22
2023-12-29T19:47:55.929Z,1.90
2023-12-29T19:50:25.659Z,2.30
2023-12-29T19:52:53.819Z,2.25
2023-12-29T19:55:21.098Z,1.90
2023-12-29T19:57:48.780Z,2.00
2023-12-29T20:00:16.182Z,1.90
2023-12-29T20:02:43.900Z,1.70
2023-12-29T20:05:12.482Z,1.80
2023-12-29T20:07:40.116Z,1.47
2023-12-29T20:10:07.827Z,1.45
2023-12-29T20:12:35.115Z,1.30
2023-12-29T20:15:05.025Z,1.20
2023-12-29T20:17:32.243Z,1.40
2023-12-29T20:20:01.580Z,1.40
2023-12-29T20:22:28.963Z,1.10
2023-12-29T20:24:56.424Z,1.43
2023-12-29T20:27:26.112Z,1.20
2023-12-29T20:29:53.269Z,1.17
2023-12-29T20:32:21.074Z,1.23
2023-12-29T20:34:48.524Z,1.15
2023-12-29T20:37:16.153Z,1.33
2023-12-29T20:39:43.594Z,1.10
2023-12-29T20:42:10.796Z,1.50
2023-12-29T20:44:38.891Z,1.40
2023-12-29T20:47:06.311Z,1.20
2023-12-29T20:49:33.421Z,1.50
2023-12-29T20:52:00.820Z,1.47
2023-12-29T20:54:28.146Z,1.20
2023-12-29T20:56:57.804Z,1.20
2023-12-29T20:59:25.004Z,1.30
2023-12-29T21:01:52.455Z,1.40
2023-12-29T21:04:19.679Z,1.30
2023-12-29T21:06:46.790Z,1.40
2023-12-29T21:09:14.266Z,1.42
2023-12-29T21:11:43.527Z,1.20
2023-12-29T21:14:10.619Z,1.30
2023-12-29T21:16:37.702Z,1.30
2023-12-29T21:19:05.323Z,1.20
2023-12-29T21:21:40.835Z,1.65
2023-12-29T21:24:11.682Z,1.40
2023-12-29T21:26:38.793Z,1.47
2023-12-29T21:29:06.092Z,1.50
2023-12-29T21:31:35.587Z,1.30
2023-12-29T21:34:06.510Z,1.20
2023-12-29T21:36:33.727Z,1.20
2023-12-29T21:39:00.842Z,1.00
2023-12-29T21:41:28.792Z,1.10
2023-12-29T21:43:56.078Z,1.33
2023-12-29T21:46:23.158Z,1.20
2023-12-29T21:48:51.915Z,1.20
2023-12-29T21:51:25.445Z,1.00
2023-12-29T21:53:52.379Z,1.48
2023-12-29T21:56:19.704Z,1.38
2023-12-29T21:58:51.140Z,1.15
2023-12-29T22:01:39.210Z,1.10
2023-12-29T22:04:09.414Z,1.10
2023-12-29T22:06:39.035Z,1.15
2023-12-29T22:09:06.378Z,1.40
2023-12-29T22:11:33.764Z,1.40
2023-12-29T22:14:01.593Z,1.70
2023-12-29T22:16:29.038Z,1.52
2023-12-29T22:18:56.528Z,1.60
2023-12-29T22:21:23.704Z,1.50
2023-12-29T22:23:50.937Z,1.30
2023-12-29T22:26:19.453Z,1.17
2023-12-29T22:28:51.159Z,1.23
2023-12-29T22:31:20.587Z,1.10
2023-12-29T22:33:48.280Z,1.38
2023-12-29T22:36:17.621Z,1.10
2023-12-29T22:38:45.585Z,1.00
2023-12-29T22:41:18.181Z,1.38
2023-12-29T22:43:46.119Z,1.20
2023-12-29T22:46:21.299Z,1.38
2023-12-29T22:48:51.253Z,1.30
2023-12-29T22:51:18.552Z,1.00
2023-12-29T22:53:45.664Z,1.42
2023-12-29T22:56:13.130Z,1.27
2023-12-29T22:58:40.525Z,1.20
2023-12-29T23:01:07.869Z,1.40
2023-12-29T23:03:40.174Z,1.90
2023-12-29T23:06:07.866Z,1.40
2023-12-29T23:08:35.135Z,1.25
2023-12-29T23:11:02.417Z,1.30
2023-12-29T23:13:29.847Z,1.30
2023-12-29T23:15:57.895Z,1.20
2023-12-29T23:18:25.438Z,1.42
2023-12-29T23:20:52.573Z,1.30
2023-12-29T23:23:19.658Z,1.30
2023-12-29T23:25:49.332Z,1.33
2023-12-29T23:28:16.449Z,1.30
2023-12-29T23:30:43.739Z,1.30
2023-12-29T23:33:11.127Z,1.30
2023-12-29T23:35:38.781Z,1.50
2023-12-29T23:38:06.153Z,1.30
2023-12-29T23:40:33.488Z,1.48
2023-12-29T23:43:01.082Z,1.33
2023-12-29T23:45:29.349Z,1.20
2023-12-29T23:47:56.505Z,1.30
2023-12-29T23:50:23.502Z,1.40
2023-12-29T23:52:50.939Z,1.30
2023-12-29T23:55:24.224Z,1.30
2023-12-29T23:57:51.664Z,1.40
